sensor_id;sensor_type;location;lat;lon;timestamp;P1;durP1;ratioP1;P2;durP2;ratioP2
61531;SDS011;47397;48.194;11.632;2024-01-11T00:00:38;41.45;;;17.42;;
61531;SDS011;47397;48.194;11.632;2024-01-11T00:01:38;47.22;;;19.15;;
61531;SDS011;47397;48.194;11.632;2024-01-11T00:02:39;51.65;;;17.40;;
61531;SDS011;47397;48.194;11.632;2024-01-11T00:03:39;42.83;;;18.13;;
61531;SDS011;47397;48.194;11.632;2024-01-11T00:04:39;44.65;;;18.23;;
61531;SDS011;47397;48.194;11.632;2024-01-11T00:05:40;48.22;;;17.83;;
61531;SDS011;47397;48.194;11.632;2024-01-11T00:06:41;41.65;;;17.30;;
61531;SDS011;47397;48.194;11.632;2024-01-11T00:07:41;39.83;;;15.98;;
61531;SDS011;47397;48.194;11.632;2024-01-11T00:08:42;42.33;;;17.17;;
61531;SDS011;47397;48.194;11.632;2024-01-11T00:09:43;42.20;;;18.35;;
61531;SDS011;47397;48.194;11.632;2024-01-11T00:10:44;39.40;;;17.38;;
61531;SDS011;47397;48.194;11.632;2024-01-11T00:11:45;37.70;;;15.85;;
61531;SDS011;47397;48.194;11.632;2024-01-11T00:12:45;39.05;;;17.17;;
61531;SDS011;47397;48.194;11.632;2024-01-11T00:13:45;37.95;;;16.33;;
61531;SDS011;47397;48.194;11.632;2024-01-11T00:14:45;35.60;;;15.88;;
61531;SDS011;47397;48.194;11.632;2024-01-11T00:15:46;50.42;;;17.60;;
61531;SDS011;47397;48.194;11.632;2024-01-11T00:16:46;38.63;;;16.13;;
61531;SDS011;47397;48.194;11.632;2024-01-11T00:17:46;40.30;;;17.65;;
61531;SDS011;47397;48.194;11.632;2024-01-11T00:18:47;52.95;;;18.17;;
61531;SDS011;47397;48.194;11.632;2024-01-11T00:19:47;40.83;;;16.73;;
61531;SDS011;47397;48.194;11.632;2024-01-11T00:20:47;42.25;;;17.38;;
61531;SDS011;47397;48.194;11.632;2024-01-11T00:21:48;42.90;;;18.58;;
61531;SDS011;47397;48.194;11.632;2024-01-11T00:22:48;39.95;;;16.40;;
61531;SDS011;47397;48.194;11.632;2024-01-11T00:23:48;40.15;;;16.45;;
61531;SDS011;47397;48.194;11.632;2024-01-11T00:24:49;43.05;;;15.75;;
61531;SDS011;47397;48.194;11.632;2024-01-11T00:25:50;37.95;;;16.67;;
61531;SDS011;47397;48.194;11.632;2024-01-11T00:26:51;43.28;;;14.90;;
61531;SDS011;47397;48.194;11.632;2024-01-11T00:27:51;50.78;;;17.38;;
61531;SDS011;47397;48.194;11.632;2024-01-11T00:28:51;38.80;;;16.08;;
61531;SDS011;47397;48.194;11.632;2024-01-11T00:29:52;37.28;;;16.55;;
61531;SDS011;47397;48.194;11.632;2024-01-11T00:30:53;40.22;;;17.00;;
61531;SDS011;47397;48.194;11.632;2024-01-11T00:31:53;41.15;;;15.68;;
61531;SDS011;47397;48.194;11.632;2024-01-11T00:32:54;46.10;;;16.80;;
61531;SDS011;47397;48.194;11.632;2024-01-11T00:33:54;43.80;;;17.17;;
61531;SDS011;47397;48.194;11.632;2024-01-11T00:34:55;39.63;;;17.45;;
61531;SDS011;47397;48.194;11.632;2024-01-11T00:35:55;43.03;;;16.98;;
61531;SDS011;47397;48.194;11.632;2024-01-11T00:36:55;43.28;;;18.55;;
61531;SDS011;47397;48.194;11.632;2024-01-11T00:37:56;42.90;;;17.85;;
61531;SDS011;47397;48.194;11.632;2024-01-11T00:38:56;41.40;;;17.88;;
61531;SDS011;47397;48.194;11.632;2024-01-11T00:39:56;38.15;;;17.15;;
61531;SDS011;47397;48.194;11.632;2024-01-11T00:40:58;48.95;;;18.13;;
61531;SDS011;47397;48.194;11.632;2024-01-11T00:41:58;42.03;;;17.50;;
61531;SDS011;47397;48.194;11.632;2024-01-11T00:42:59;47.05;;;17.63;;
61531;SDS011;47397;48.194;11.632;2024-01-11T00:43:59;43.13;;;17.65;;
61531;SDS011;47397;48.194;11.632;2024-01-11T00:44:59;43.10;;;17.83;;
61531;SDS011;47397;48.194;11.632;2024-01-11T00:46:00;48.90;;;19.40;;
61531;SDS011;47397;48.194;11.632;2024-01-11T00:47:00;48.00;;;18.80;;
61531;SDS011;47397;48.194;11.632;2024-01-11T00:48:00;54.38;;;20.95;;
61531;SDS011;47397;48.194;11.632;2024-01-11T00:49:01;47.83;;;19.90;;
61531;SDS011;47397;48.194;11.632;2024-01-11T00:50:01;47.90;;;21.30;;
61531;SDS011;47397;48.194;11.632;2024-01-11T00:51:01;49.85;;;20.67;;
61531;SDS011;47397;48.194;11.632;2024-01-11T00:52:03;48.25;;;19.42;;
61531;SDS011;47397;48.194;11.632;2024-01-11T00:53:04;49.55;;;20.05;;
61531;SDS011;47397;48.194;11.632;2024-01-11T00:54:04;45.45;;;19.85;;
61531;SDS011;47397;48.194;11.632;2024-01-11T00:55:05;51.70;;;20.17;;
61531;SDS011;47397;48.194;11.632;2024-01-11T00:56:14;47.35;;;20.10;;
61531;SDS011;47397;48.194;11.632;2024-01-11T00:57:15;44.55;;;20.20;;
61531;SDS011;47397;48.194;11.632;2024-01-11T00:58:15;46.63;;;20.15;;
61531;SDS011;47397;48.194;11.632;2024-01-11T00:59:15;48.13;;;20.63;;
61531;SDS011;47397;48.194;11.632;2024-01-11T01:00:16;47.08;;;20.08;;
61531;SDS011;47397;48.194;11.632;2024-01-11T01:01:16;48.30;;;20.15;;
61531;SDS011;47397;48.194;11.632;2024-01-11T01:02:19;50.95;;;19.48;;
61531;SDS011;47397;48.194;11.632;2024-01-11T01:03:20;43.67;;;19.70;;
61531;SDS011;47397;48.194;11.632;2024-01-11T01:04:21;47.50;;;19.58;;
61531;SDS011;47397;48.194;11.632;2024-01-11T01:05:21;42.15;;;18.17;;
61531;SDS011;47397;48.194;11.632;2024-01-11T01:06:21;38.33;;;17.33;;
61531;SDS011;47397;48.194;11.632;2024-01-11T01:07:22;42.33;;;17.63;;
61531;SDS011;47397;48.194;11.632;2024-01-11T01:08:22;41.35;;;17.50;;
61531;SDS011;47397;48.194;11.632;2024-01-11T01:09:22;37.45;;;17.23;;
61531;SDS011;47397;48.194;11.632;2024-01-11T01:10:23;42.45;;;17.40;;
61531;SDS011;47397;48.194;11.632;2024-01-11T01:11:24;41.42;;;17.15;;
61531;SDS011;47397;48.194;11.632;2024-01-11T01:12:24;41.50;;;16.63;;
61531;SDS011;47397;48.194;11.632;2024-01-11T01:13:25;36.58;;;15.52;;
61531;SDS011;47397;48.194;11.632;2024-01-11T01:14:25;36.58;;;16.02;;
61531;SDS011;47397;48.194;11.632;2024-01-11T01:15:25;38.75;;;16.92;;
61531;SDS011;47397;48.194;11.632;2024-01-11T01:16:26;45.03;;;18.17;;
61531;SDS011;47397;48.194;11.632;2024-01-11T01:17:26;39.65;;;17.60;;
61531;SDS011;47397;48.194;11.632;2024-01-11T01:18:26;43.58;;;16.90;;
61531;SDS011;47397;48.194;11.632;2024-01-11T01:19:27;40.45;;;18.10;;
61531;SDS011;47397;48.194;11.632;2024-01-11T01:20:27;39.40;;;15.15;;
61531;SDS011;47397;48.194;11.632;2024-01-11T01:21:27;33.88;;;15.93;;
61531;SDS011;47397;48.194;11.632;2024-01-11T01:22:28;38.80;;;16.55;;
61531;SDS011;47397;48.194;11.632;2024-01-11T01:23:28;30.13;;;14.60;;
61531;SDS011;47397;48.194;11.632;2024-01-11T01:24:28;38.17;;;15.18;;
61531;SDS011;47397;48.194;11.632;2024-01-11T01:25:30;38.47;;;15.63;;
61531;SDS011;47397;48.194;11.632;2024-01-11T01:26:32;43.40;;;16.40;;
61531;SDS011;47397;48.194;11.632;2024-01-11T01:27:32;36.53;;;16.33;;
61531;SDS011;47397;48.194;11.632;2024-01-11T01:28:33;42.20;;;16.13;;
61531;SDS011;47397;48.194;11.632;2024-01-11T01:29:33;35.92;;;16.02;;
61531;SDS011;47397;48.194;11.632;2024-01-11T01:30:33;37.25;;;16.17;;
61531;SDS011;47397;48.194;11.632;2024-01-11T01:31:34;52.38;;;17.83;;
61531;SDS011;47397;48.194;11.632;2024-01-11T01:32:34;41.08;;;16.98;;
61531;SDS011;47397;48.194;11.632;2024-01-11T01:33:34;49.03;;;17.25;;
61531;SDS011;47397;48.194;11.632;2024-01-11T01:34:35;40.70;;;16.70;;
61531;SDS011;47397;48.194;11.632;2024-01-11T01:35:35;54.67;;;16.77;;
61531;SDS011;47397;48.194;11.632;2024-01-11T01:36:35;36.60;;;15.43;;
61531;SDS011;47397;48.194;11.632;2024-01-11T01:37:35;35.08;;;16.25;;
61531;SDS011;47397;48.194;11.632;2024-01-11T01:38:36;39.53;;;16.67;;
61531;SDS011;47397;48.194;11.632;2024-01-11T01:39:37;40.63;;;16.33;;
61531;SDS011;47397;48.194;11.632;2024-01-11T01:40:37;39.28;;;16.38;;
61531;SDS011;47397;48.194;11.632;2024-01-11T01:41:39;40.00;;;16.52;;
61531;SDS011;47397;48.194;11.632;2024-01-11T01:42:41;37.75;;;15.73;;
61531;SDS011;47397;48.194;11.632;2024-01-11T01:43:42;39.78;;;15.20;;
61531;SDS011;47397;48.194;11.632;2024-01-11T01:44:42;39.63;;;16.60;;
61531;SDS011;47397;48.194;11.632;2024-01-11T01:45:42;38.13;;;17.08;;
61531;SDS011;47397;48.194;11.632;2024-01-11T01:46:43;42.20;;;17.35;;
61531;SDS011;47397;48.194;11.632;2024-01-11T01:47:43;39.13;;;16.50;;
61531;SDS011;47397;48.194;11.632;2024-01-11T01:48:44;35.78;;;15.82;;
61531;SDS011;47397;48.194;11.632;2024-01-11T01:49:44;41.42;;;17.40;;
61531;SDS011;47397;48.194;11.632;2024-01-11T01:50:48;33.47;;;14.95;;
61531;SDS011;47397;48.194;11.632;2024-01-11T01:51:49;41.00;;;16.38;;
61531;SDS011;47397;48.194;11.632;2024-01-11T01:52:50;35.88;;;16.25;;
61531;SDS011;47397;48.194;11.632;2024-01-11T01:53:51;42.47;;;16.70;;
61531;SDS011;47397;48.194;11.632;2024-01-11T01:54:53;43.53;;;16.75;;
61531;SDS011;47397;48.194;11.632;2024-01-11T01:55:53;34.78;;;16.63;;
61531;SDS011;47397;48.194;11.632;2024-01-11T01:56:55;40.78;;;16.83;;
61531;SDS011;47397;48.194;11.632;2024-01-11T01:57:56;40.05;;;16.83;;
61531;SDS011;47397;48.194;11.632;2024-01-11T01:58:57;41.25;;;16.40;;
61531;SDS011;47397;48.194;11.632;2024-01-11T01:59:59;44.83;;;18.08;;
61531;SDS011;47397;48.194;11.632;2024-01-11T02:01:00;38.00;;;16.45;;
61531;SDS011;47397;48.194;11.632;2024-01-11T02:02:01;40.97;;;16.60;;
61531;SDS011;47397;48.194;11.632;2024-01-11T02:03:01;39.33;;;17.23;;
61531;SDS011;47397;48.194;11.632;2024-01-11T02:04:02;39.67;;;17.42;;
61531;SDS011;47397;48.194;11.632;2024-01-11T02:05:03;44.15;;;18.05;;
61531;SDS011;47397;48.194;11.632;2024-01-11T02:06:05;41.45;;;18.30;;
61531;SDS011;47397;48.194;11.632;2024-01-11T02:07:06;46.05;;;19.55;;
61531;SDS011;47397;48.194;11.632;2024-01-11T02:08:07;46.40;;;19.65;;
61531;SDS011;47397;48.194;11.632;2024-01-11T02:09:09;41.00;;;17.73;;
61531;SDS011;47397;48.194;11.632;2024-01-11T02:10:11;35.83;;;16.90;;
61531;SDS011;47397;48.194;11.632;2024-01-11T02:11:12;37.45;;;16.90;;
61531;SDS011;47397;48.194;11.632;2024-01-11T02:12:14;35.83;;;16.63;;
61531;SDS011;47397;48.194;11.632;2024-01-11T02:13:14;38.58;;;17.85;;
61531;SDS011;47397;48.194;11.632;2024-01-11T02:14:15;33.83;;;15.95;;
61531;SDS011;47397;48.194;11.632;2024-01-11T02:15:15;41.28;;;18.58;;
61531;SDS011;47397;48.194;11.632;2024-01-11T02:16:16;39.17;;;15.85;;
61531;SDS011;47397;48.194;11.632;2024-01-11T02:17:16;37.72;;;18.23;;
61531;SDS011;47397;48.194;11.632;2024-01-11T02:18:17;34.72;;;16.63;;
61531;SDS011;47397;48.194;11.632;2024-01-11T02:19:18;36.78;;;17.05;;
61531;SDS011;47397;48.194;11.632;2024-01-11T02:20:19;38.53;;;17.15;;
61531;SDS011;47397;48.194;11.632;2024-01-11T02:21:19;42.00;;;17.30;;
61531;SDS011;47397;48.194;11.632;2024-01-11T02:22:21;38.63;;;17.27;;
61531;SDS011;47397;48.194;11.632;2024-01-11T02:23:24;37.85;;;16.35;;
61531;SDS011;47397;48.194;11.632;2024-01-11T02:24:28;38.78;;;17.20;;
61531;SDS011;47397;48.194;11.632;2024-01-11T02:25:29;39.42;;;18.23;;
61531;SDS011;47397;48.194;11.632;2024-01-11T02:26:29;46.53;;;16.40;;
61531;SDS011;47397;48.194;11.632;2024-01-11T02:27:30;46.92;;;17.10;;
61531;SDS011;47397;48.194;11.632;2024-01-11T02:28:30;42.08;;;17.50;;
61531;SDS011;47397;48.194;11.632;2024-01-11T02:29:31;35.60;;;16.77;;
61531;SDS011;47397;48.194;11.632;2024-01-11T02:30:32;44.60;;;18.77;;
61531;SDS011;47397;48.194;11.632;2024-01-11T02:31:32;34.75;;;16.58;;
61531;SDS011;47397;48.194;11.632;2024-01-11T02:32:32;37.88;;;15.98;;
61531;SDS011;47397;48.194;11.632;2024-01-11T02:33:33;36.67;;;17.15;;
61531;SDS011;47397;48.194;11.632;2024-01-11T02:34:33;37.03;;;16.80;;
61531;SDS011;47397;48.194;11.632;2024-01-11T02:35:34;35.85;;;15.65;;
61531;SDS011;47397;48.194;11.632;2024-01-11T02:36:35;38.72;;;16.38;;
61531;SDS011;47397;48.194;11.632;2024-01-11T02:37:36;38.15;;;15.15;;
61531;SDS011;47397;48.194;11.632;2024-01-11T02:38:37;41.90;;;16.38;;
61531;SDS011;47397;48.194;11.632;2024-01-11T02:39:39;44.67;;;16.90;;
61531;SDS011;47397;48.194;11.632;2024-01-11T02:40:40;41.60;;;16.08;;
61531;SDS011;47397;48.194;11.632;2024-01-11T02:41:41;35.08;;;15.10;;
61531;SDS011;47397;48.194;11.632;2024-01-11T02:42:43;36.33;;;15.55;;
61531;SDS011;47397;48.194;11.632;2024-01-11T02:43:46;34.92;;;15.50;;
61531;SDS011;47397;48.194;11.632;2024-01-11T02:44:46;35.67;;;15.60;;
61531;SDS011;47397;48.194;11.632;2024-01-11T02:45:47;43.75;;;16.55;;
61531;SDS011;47397;48.194;11.632;2024-01-11T02:46:47;44.95;;;16.35;;
61531;SDS011;47397;48.194;11.632;2024-01-11T02:47:47;39.83;;;15.82;;
61531;SDS011;47397;48.194;11.632;2024-01-11T02:48:48;42.72;;;17.48;;
61531;SDS011;47397;48.194;11.632;2024-01-11T02:49:48;35.42;;;16.50;;
61531;SDS011;47397;48.194;11.632;2024-01-11T02:50:49;43.92;;;17.95;;
61531;SDS011;47397;48.194;11.632;2024-01-11T02:51:50;38.63;;;16.02;;
61531;SDS011;47397;48.194;11.632;2024-01-11T02:52:50;38.60;;;16.33;;
61531;SDS011;47397;48.194;11.632;2024-01-11T02:53:50;40.17;;;16.65;;
61531;SDS011;47397;48.194;11.632;2024-01-11T02:54:52;40.78;;;17.40;;
61531;SDS011;47397;48.194;11.632;2024-01-11T02:55:52;41.75;;;16.75;;
61531;SDS011;47397;48.194;11.632;2024-01-11T02:56:52;37.75;;;16.65;;
61531;SDS011;47397;48.194;11.632;2024-01-11T02:57:53;41.67;;;17.40;;
61531;SDS011;47397;48.194;11.632;2024-01-11T02:58:53;43.80;;;17.48;;
61531;SDS011;47397;48.194;11.632;2024-01-11T02:59:54;44.50;;;17.33;;
61531;SDS011;47397;48.194;11.632;2024-01-11T03:00:54;40.28;;;18.10;;
61531;SDS011;47397;48.194;11.632;2024-01-11T03:01:54;36.55;;;16.58;;
61531;SDS011;47397;48.194;11.632;2024-01-11T03:02:54;42.47;;;17.98;;
61531;SDS011;47397;48.194;11.632;2024-01-11T03:03:55;37.95;;;16.98;;
61531;SDS011;47397;48.194;11.632;2024-01-11T03:04:56;45.03;;;17.73;;
61531;SDS011;47397;48.194;11.632;2024-01-11T03:05:56;53.38;;;17.98;;
61531;SDS011;47397;48.194;11.632;2024-01-11T03:06:56;42.88;;;17.63;;
61531;SDS011;47397;48.194;11.632;2024-01-11T03:07:57;44.72;;;17.73;;
61531;SDS011;47397;48.194;11.632;2024-01-11T03:08:57;39.38;;;17.38;;
61531;SDS011;47397;48.194;11.632;2024-01-11T03:09:59;44.42;;;19.38;;
61531;SDS011;47397;48.194;11.632;2024-01-11T03:10:59;43.45;;;17.70;;
61531;SDS011;47397;48.194;11.632;2024-01-11T03:11:59;41.03;;;17.98;;
61531;SDS011;47397;48.194;11.632;2024-01-11T03:13:00;39.40;;;17.08;;
61531;SDS011;47397;48.194;11.632;2024-01-11T03:14:00;36.95;;;17.13;;
61531;SDS011;47397;48.194;11.632;2024-01-11T03:15:00;45.17;;;19.00;;
61531;SDS011;47397;48.194;11.632;2024-01-11T03:16:01;46.17;;;18.60;;
61531;SDS011;47397;48.194;11.632;2024-01-11T03:17:01;40.05;;;16.17;;
61531;SDS011;47397;48.194;11.632;2024-01-11T03:18:02;40.58;;;16.88;;
61531;SDS011;47397;48.194;11.632;2024-01-11T03:19:02;39.95;;;17.33;;
61531;SDS011;47397;48.194;11.632;2024-01-11T03:20:03;37.58;;;17.30;;
61531;SDS011;47397;48.194;11.632;2024-01-11T03:21:03;37.58;;;18.08;;
61531;SDS011;47397;48.194;11.632;2024-01-11T03:22:04;39.95;;;18.40;;
61531;SDS011;47397;48.194;11.632;2024-01-11T03:23:04;41.70;;;17.67;;
61531;SDS011;47397;48.194;11.632;2024-01-11T03:24:04;39.38;;;17.10;;
61531;SDS011;47397;48.194;11.632;2024-01-11T03:25:06;45.88;;;18.25;;
61531;SDS011;47397;48.194;11.632;2024-01-11T03:26:11;37.97;;;17.25;;
61531;SDS011;47397;48.194;11.632;2024-01-11T03:27:13;41.53;;;16.65;;
61531;SDS011;47397;48.194;11.632;2024-01-11T03:28:13;36.28;;;16.77;;
61531;SDS011;47397;48.194;11.632;2024-01-11T03:29:13;37.10;;;17.00;;
61531;SDS011;47397;48.194;11.632;2024-01-11T03:30:14;42.97;;;18.15;;
61531;SDS011;47397;48.194;11.632;2024-01-11T03:31:14;37.97;;;17.23;;
61531;SDS011;47397;48.194;11.632;2024-01-11T03:32:14;36.67;;;17.15;;
61531;SDS011;47397;48.194;11.632;2024-01-11T03:33:15;40.10;;;17.27;;
61531;SDS011;47397;48.194;11.632;2024-01-11T03:34:15;40.30;;;17.52;;
61531;SDS011;47397;48.194;11.632;2024-01-11T03:35:15;39.80;;;17.17;;
61531;SDS011;47397;48.194;11.632;2024-01-11T03:36:16;39.00;;;17.20;;
61531;SDS011;47397;48.194;11.632;2024-01-11T03:37:16;44.75;;;17.90;;
61531;SDS011;47397;48.194;11.632;2024-01-11T03:38:16;42.30;;;17.63;;
61531;SDS011;47397;48.194;11.632;2024-01-11T03:39:17;42.10;;;18.77;;
61531;SDS011;47397;48.194;11.632;2024-01-11T03:40:18;41.00;;;17.38;;
61531;SDS011;47397;48.194;11.632;2024-01-11T03:41:19;39.30;;;17.30;;
61531;SDS011;47397;48.194;11.632;2024-01-11T03:42:19;40.90;;;16.85;;
61531;SDS011;47397;48.194;11.632;2024-01-11T03:43:19;37.80;;;17.50;;
61531;SDS011;47397;48.194;11.632;2024-01-11T03:44:20;41.50;;;20.02;;
61531;SDS011;47397;48.194;11.632;2024-01-11T03:45:20;38.13;;;17.48;;
61531;SDS011;47397;48.194;11.632;2024-01-11T03:46:20;44.15;;;18.75;;
61531;SDS011;47397;48.194;11.632;2024-01-11T03:47:21;38.50;;;17.95;;
61531;SDS011;47397;48.194;11.632;2024-01-11T03:48:21;36.45;;;16.88;;
61531;SDS011;47397;48.194;11.632;2024-01-11T03:49:21;40.58;;;18.13;;
61531;SDS011;47397;48.194;11.632;2024-01-11T03:50:22;39.67;;;17.58;;
61531;SDS011;47397;48.194;11.632;2024-01-11T03:51:22;40.50;;;16.60;;
61531;SDS011;47397;48.194;11.632;2024-01-11T03:52:22;38.63;;;16.75;;
61531;SDS011;47397;48.194;11.632;2024-01-11T03:53:23;39.17;;;17.63;;
61531;SDS011;47397;48.194;11.632;2024-01-11T03:54:23;36.70;;;16.00;;
61531;SDS011;47397;48.194;11.632;2024-01-11T03:55:25;42.33;;;17.23;;
61531;SDS011;47397;48.194;11.632;2024-01-11T03:56:25;37.20;;;14.52;;
61531;SDS011;47397;48.194;11.632;2024-01-11T03:57:25;35.40;;;15.20;;
61531;SDS011;47397;48.194;11.632;2024-01-11T03:58:25;35.50;;;16.23;;
61531;SDS011;47397;48.194;11.632;2024-01-11T03:59:26;37.40;;;15.95;;
61531;SDS011;47397;48.194;11.632;2024-01-11T04:00:26;37.30;;;15.98;;
61531;SDS011;47397;48.194;11.632;2024-01-11T04:01:26;38.67;;;15.23;;
61531;SDS011;47397;48.194;11.632;2024-01-11T04:02:27;37.05;;;16.55;;
61531;SDS011;47397;48.194;11.632;2024-01-11T04:03:27;38.33;;;15.68;;
61531;SDS011;47397;48.194;11.632;2024-01-11T04:04:27;32.97;;;14.70;;
61531;SDS011;47397;48.194;11.632;2024-01-11T04:05:28;40.22;;;16.80;;
61531;SDS011;47397;48.194;11.632;2024-01-11T04:06:28;42.55;;;17.08;;
61531;SDS011;47397;48.194;11.632;2024-01-11T04:07:28;37.38;;;16.83;;
61531;SDS011;47397;48.194;11.632;2024-01-11T04:08:29;40.80;;;17.15;;
61531;SDS011;47397;48.194;11.632;2024-01-11T04:09:29;37.55;;;16.33;;
61531;SDS011;47397;48.194;11.632;2024-01-11T04:10:31;35.40;;;15.35;;
61531;SDS011;47397;48.194;11.632;2024-01-11T04:11:31;34.45;;;15.80;;
61531;SDS011;47397;48.194;11.632;2024-01-11T04:12:31;36.20;;;15.40;;
61531;SDS011;47397;48.194;11.632;2024-01-11T04:13:32;34.72;;;14.98;;
61531;SDS011;47397;48.194;11.632;2024-01-11T04:14:32;32.40;;;15.80;;
61531;SDS011;47397;48.194;11.632;2024-01-11T04:15:32;33.67;;;14.85;;
61531;SDS011;47397;48.194;11.632;2024-01-11T04:16:33;33.13;;;15.77;;
61531;SDS011;47397;48.194;11.632;2024-01-11T04:17:33;34.60;;;15.90;;
61531;SDS011;47397;48.194;11.632;2024-01-11T04:18:33;33.13;;;15.25;;
61531;SDS011;47397;48.194;11.632;2024-01-11T04:19:34;35.40;;;15.63;;
61531;SDS011;47397;48.194;11.632;2024-01-11T04:20:34;41.17;;;16.73;;
61531;SDS011;47397;48.194;11.632;2024-01-11T04:21:34;33.38;;;15.32;;
61531;SDS011;47397;48.194;11.632;2024-01-11T04:22:35;41.42;;;16.55;;
61531;SDS011;47397;48.194;11.632;2024-01-11T04:23:35;34.58;;;15.23;;
61531;SDS011;47397;48.194;11.632;2024-01-11T04:24:35;34.20;;;15.73;;
61531;SDS011;47397;48.194;11.632;2024-01-11T04:25:37;31.58;;;15.10;;
61531;SDS011;47397;48.194;11.632;2024-01-11T04:26:37;32.90;;;14.65;;
61531;SDS011;47397;48.194;11.632;2024-01-11T04:27:37;30.13;;;15.13;;
61531;SDS011;47397;48.194;11.632;2024-01-11T04:28:38;31.27;;;14.25;;
61531;SDS011;47397;48.194;11.632;2024-01-11T04:29:38;32.17;;;15.27;;
61531;SDS011;47397;48.194;11.632;2024-01-11T04:30:38;37.80;;;15.52;;
61531;SDS011;47397;48.194;11.632;2024-01-11T04:31:39;35.40;;;16.00;;
61531;SDS011;47397;48.194;11.632;2024-01-11T04:32:39;35.55;;;15.55;;
61531;SDS011;47397;48.194;11.632;2024-01-11T04:33:40;34.72;;;15.25;;
61531;SDS011;47397;48.194;11.632;2024-01-11T04:34:40;36.72;;;15.98;;
61531;SDS011;47397;48.194;11.632;2024-01-11T04:35:40;36.67;;;16.00;;
61531;SDS011;47397;48.194;11.632;2024-01-11T04:36:41;40.33;;;17.45;;
61531;SDS011;47397;48.194;11.632;2024-01-11T04:37:41;47.92;;;17.30;;
61531;SDS011;47397;48.194;11.632;2024-01-11T04:38:42;37.25;;;17.20;;
61531;SDS011;47397;48.194;11.632;2024-01-11T04:39:42;39.35;;;17.50;;
61531;SDS011;47397;48.194;11.632;2024-01-11T04:40:43;38.75;;;17.45;;
61531;SDS011;47397;48.194;11.632;2024-01-11T04:41:44;39.45;;;17.00;;
61531;SDS011;47397;48.194;11.632;2024-01-11T04:42:45;39.72;;;17.45;;
61531;SDS011;47397;48.194;11.632;2024-01-11T04:43:45;39.55;;;17.83;;
61531;SDS011;47397;48.194;11.632;2024-01-11T04:44:45;39.35;;;17.15;;
61531;SDS011;47397;48.194;11.632;2024-01-11T04:45:45;40.95;;;18.17;;
61531;SDS011;47397;48.194;11.632;2024-01-11T04:46:46;40.10;;;17.75;;
61531;SDS011;47397;48.194;11.632;2024-01-11T04:47:46;39.42;;;17.38;;
61531;SDS011;47397;48.194;11.632;2024-01-11T04:48:47;45.15;;;19.30;;
61531;SDS011;47397;48.194;11.632;2024-01-11T04:49:48;38.80;;;17.58;;
61531;SDS011;47397;48.194;11.632;2024-01-11T04:50:48;44.05;;;19.33;;
61531;SDS011;47397;48.194;11.632;2024-01-11T04:51:48;45.05;;;19.60;;
61531;SDS011;47397;48.194;11.632;2024-01-11T04:52:49;43.38;;;18.98;;
61531;SDS011;47397;48.194;11.632;2024-01-11T04:53:49;44.67;;;17.50;;
61531;SDS011;47397;48.194;11.632;2024-01-11T04:54:49;42.03;;;17.90;;
61531;SDS011;47397;48.194;11.632;2024-01-11T04:55:51;37.00;;;17.05;;
61531;SDS011;47397;48.194;11.632;2024-01-11T04:56:51;35.22;;;16.58;;
61531;SDS011;47397;48.194;11.632;2024-01-11T04:57:51;35.55;;;16.88;;
61531;SDS011;47397;48.194;11.632;2024-01-11T04:58:52;35.72;;;15.70;;
61531;SDS011;47397;48.194;11.632;2024-01-11T04:59:52;33.58;;;15.07;;
61531;SDS011;47397;48.194;11.632;2024-01-11T05:00:52;34.63;;;16.67;;
61531;SDS011;47397;48.194;11.632;2024-01-11T05:01:53;55.47;;;17.77;;
61531;SDS011;47397;48.194;11.632;2024-01-11T05:02:53;41.30;;;15.75;;
61531;SDS011;47397;48.194;11.632;2024-01-11T05:03:53;45.17;;;16.65;;
61531;SDS011;47397;48.194;11.632;2024-01-11T05:04:54;36.20;;;16.35;;
61531;SDS011;47397;48.194;11.632;2024-01-11T05:05:54;34.78;;;16.52;;
61531;SDS011;47397;48.194;11.632;2024-01-11T05:06:54;38.78;;;16.67;;
61531;SDS011;47397;48.194;11.632;2024-01-11T05:07:54;40.55;;;16.90;;
61531;SDS011;47397;48.194;11.632;2024-01-11T05:08:55;46.65;;;17.65;;
61531;SDS011;47397;48.194;11.632;2024-01-11T05:09:55;41.17;;;17.60;;
61531;SDS011;47397;48.194;11.632;2024-01-11T05:10:57;74.80;;;18.92;;
61531;SDS011;47397;48.194;11.632;2024-01-11T05:11:57;43.65;;;16.88;;
61531;SDS011;47397;48.194;11.632;2024-01-11T05:12:57;46.25;;;16.02;;
61531;SDS011;47397;48.194;11.632;2024-01-11T05:13:58;43.17;;;16.90;;
61531;SDS011;47397;48.194;11.632;2024-01-11T05:14:58;40.95;;;15.70;;
61531;SDS011;47397;48.194;11.632;2024-01-11T05:15:58;55.03;;;17.02;;
61531;SDS011;47397;48.194;11.632;2024-01-11T05:16:59;40.42;;;17.38;;
61531;SDS011;47397;48.194;11.632;2024-01-11T05:17:59;33.17;;;15.45;;
61531;SDS011;47397;48.194;11.632;2024-01-11T05:18:59;48.22;;;17.15;;
61531;SDS011;47397;48.194;11.632;2024-01-11T05:20:00;40.45;;;16.33;;
61531;SDS011;47397;48.194;11.632;2024-01-11T05:21:00;41.53;;;16.83;;
61531;SDS011;47397;48.194;11.632;2024-01-11T05:22:00;41.17;;;17.48;;
61531;SDS011;47397;48.194;11.632;2024-01-11T05:23:00;41.88;;;16.90;;
61531;SDS011;47397;48.194;11.632;2024-01-11T05:24:01;39.13;;;17.35;;
61531;SDS011;47397;48.194;11.632;2024-01-11T05:25:01;42.22;;;18.50;;
61531;SDS011;47397;48.194;11.632;2024-01-11T05:26:03;53.67;;;17.10;;
61531;SDS011;47397;48.194;11.632;2024-01-11T05:27:03;37.33;;;17.00;;
61531;SDS011;47397;48.194;11.632;2024-01-11T05:28:04;37.80;;;16.40;;
61531;SDS011;47397;48.194;11.632;2024-01-11T05:29:04;35.50;;;16.38;;
61531;SDS011;47397;48.194;11.632;2024-01-11T05:30:05;40.08;;;17.52;;
61531;SDS011;47397;48.194;11.632;2024-01-11T05:31:07;48.97;;;15.77;;
61531;SDS011;47397;48.194;11.632;2024-01-11T05:32:09;40.03;;;16.60;;
61531;SDS011;47397;48.194;11.632;2024-01-11T05:33:09;39.67;;;17.48;;
61531;SDS011;47397;48.194;11.632;2024-01-11T05:34:09;36.28;;;16.60;;
61531;SDS011;47397;48.194;11.632;2024-01-11T05:35:09;32.65;;;15.88;;
61531;SDS011;47397;48.194;11.632;2024-01-11T05:36:10;38.00;;;16.63;;
61531;SDS011;47397;48.194;11.632;2024-01-11T05:37:10;38.05;;;17.25;;
61531;SDS011;47397;48.194;11.632;2024-01-11T05:38:10;37.70;;;16.63;;
61531;SDS011;47397;48.194;11.632;2024-01-11T05:39:11;32.92;;;15.38;;
61531;SDS011;47397;48.194;11.632;2024-01-11T05:40:11;35.50;;;17.40;;
61531;SDS011;47397;48.194;11.632;2024-01-11T05:41:13;32.97;;;15.70;;
61531;SDS011;47397;48.194;11.632;2024-01-11T05:42:13;36.00;;;15.73;;
61531;SDS011;47397;48.194;11.632;2024-01-11T05:43:13;44.53;;;18.00;;
61531;SDS011;47397;48.194;11.632;2024-01-11T05:44:14;44.63;;;18.25;;
61531;SDS011;47397;48.194;11.632;2024-01-11T05:45:14;39.40;;;17.70;;
61531;SDS011;47397;48.194;11.632;2024-01-11T05:46:14;38.33;;;18.35;;
61531;SDS011;47397;48.194;11.632;2024-01-11T05:47:15;36.95;;;17.13;;
61531;SDS011;47397;48.194;11.632;2024-01-11T05:48:15;39.22;;;16.58;;
61531;SDS011;47397;48.194;11.632;2024-01-11T05:49:16;42.50;;;17.27;;